createdAt,value
2022-09-15T00:00:07.126Z,79.00
2022-09-15T00:02:33.932Z,80.20
2022-09-15T00:05:00.835Z,80.40
2022-09-15T00:07:27.644Z,80.10
2022-09-15T00:09:54.327Z,80.10
2022-09-15T00:12:21.089Z,80.20
2022-09-15T00:14:47.837Z,80.30
2022-09-15T00:17:14.635Z,79.80
2022-09-15T00:19:41.417Z,80.40
2022-09-15T00:22:08.068Z,80.10
2022-09-15T00:24:35.892Z,79.70
2022-09-15T00:27:03.302Z,79.90
2022-09-15T00:29:30.148Z,80.40
2022-09-15T00:31:56.850Z,79.60
2022-09-15T00:34:23.664Z,79.10
2022-09-15T00:36:50.381Z,79.30
2022-09-15T00:39:17.293Z,79.30
2022-09-15T00:41:43.984Z,78.70
2022-09-15T00:44:16.754Z,78.90
2022-09-15T00:46:58.731Z,78.70
2022-09-15T00:49:37.208Z,79.30
2022-09-15T00:52:42.050Z,79.10
2022-09-15T00:55:32.112Z,79.40
2022-09-15T00:58:06.670Z,79.20
2022-09-15T01:00:34.424Z,79.60
2022-09-15T01:03:01.791Z,79.60
2022-09-15T01:05:36.840Z,79.50
2022-09-15T01:08:17.592Z,79.10
2022-09-15T01:10:45.221Z,79.10
2022-09-15T01:13:14.316Z,79.00
2022-09-15T01:16:13.597Z,78.70
2022-09-15T01:19:02.900Z,78.80
2022-09-15T01:21:42.658Z,78.10
2022-09-15T01:24:45.166Z,78.00
2022-09-15T01:27:42.401Z,78.20
2022-09-15T01:30:13.959Z,77.60
2022-09-15T01:33:04.924Z,77.50
2022-09-15T01:35:56.188Z,77.60
2022-09-15T01:38:41.454Z,77.80
2022-09-15T01:41:14.348Z,78.40
2022-09-15T01:44:12.335Z,78.90
2022-09-15T01:46:54.388Z,78.50
2022-09-15T01:49:25.328Z,78.80
2022-09-15T01:51:53.932Z,78.50
2022-09-15T01:54:26.256Z,78.70
2022-09-15T01:56:52.953Z,78.20
2022-09-15T01:59:19.715Z,77.60
2022-09-15T02:01:52.068Z,77.50
2022-09-15T02:04:50.597Z,77.50
2022-09-15T02:07:31.846Z,77.20
2022-09-15T02:10:17.673Z,77.00
2022-09-15T02:13:11.181Z,77.30
2022-09-15T02:15:43.540Z,76.90
2022-09-15T02:18:14.652Z,77.30
2022-09-15T02:20:58.476Z,77.30
2022-09-15T02:23:31.289Z,77.70
2022-09-15T02:26:05.035Z,77.80
2022-09-15T02:28:34.969Z,77.60
2022-09-15T02:31:04.901Z,77.40
2022-09-15T02:33:41.100Z,77.30
2022-09-15T02:36:10.924Z,77.90
2022-09-15T02:38:42.189Z,77.40
2022-09-15T02:41:08.986Z,77.30
2022-09-15T02:43:47.822Z,77.40
2022-09-15T02:46:16.313Z,77.30
2022-09-15T02:48:42.968Z,77.20
2022-09-15T02:51:09.845Z,77.50
2022-09-15T02:53:36.931Z,77.80
2022-09-15T02:56:06.525Z,77.80
2022-09-15T02:58:36.410Z,78.20
2022-09-15T03:01:05.625Z,78.20
2022-09-15T03:03:33.709Z,77.80
2022-09-15T03:06:16.426Z,77.50
2022-09-15T03:08:47.007Z,77.70
2022-09-15T03:11:14.448Z,77.90
2022-09-15T03:13:41.139Z,77.90
2022-09-15T03:16:09.860Z,77.00
2022-09-15T03:18:37.630Z,77.20
2022-09-15T03:21:06.191Z,77.60
2022-09-15T03:23:33.250Z,77.20
2022-09-15T03:26:00.009Z,76.70
2022-09-15T03:28:27.149Z,76.80
2022-09-15T03:30:54.609Z,76.30
2022-09-15T03:33:22.067Z,75.90
2022-09-15T03:35:50.386Z,75.70
2022-09-15T03:38:17.552Z,75.70
2022-09-15T03:40:45.003Z,76.10
2022-09-15T03:43:16.635Z,76.10
2022-09-15T03:45:45.252Z,75.90
2022-09-15T03:48:11.941Z,76.30
2022-09-15T03:50:38.517Z,76.00
2022-09-15T03:53:05.220Z,75.60
2022-09-15T03:55:31.808Z,75.60
2022-09-15T03:57:58.436Z,75.60
2022-09-15T04:00:25.025Z,76.00
2022-09-15T04:02:51.705Z,75.50
2022-09-15T04:05:18.381Z,75.10
2022-09-15T04:07:45.243Z,75.80
2022-09-15T04:10:16.323Z,75.00
2022-09-15T04:12:44.239Z,75.30
2022-09-15T04:15:10.998Z,75.00
2022-09-15T04:17:37.620Z,75.30
2022-09-15T04:20:04.414Z,74.80
2022-09-15T04:22:32.099Z,74.60
2022-09-15T04:24:58.724Z,74.40
2022-09-15T04:27:25.315Z,74.50
2022-09-15T04:29:52.891Z,74.40
2022-09-15T04:32:20.594Z,74.30
2022-09-15T04:34:47.382Z,74.00
2022-09-15T04:37:14.021Z,73.90
2022-09-15T04:39:40.637Z,74.30
2022-09-15T04:42:07.788Z,73.80
2022-09-15T04:44:34.405Z,73.70
2022-09-15T04:47:01.059Z,73.60
2022-09-15T04:49:28.843Z,73.40
2022-09-15T04:51:55.480Z,73.30
2022-09-15T04:54:22.125Z,73.20
2022-09-15T04:56:49.324Z,73.10
2022-09-15T04:59:17.588Z,73.00
2022-09-15T05:01:44.947Z,72.90
2022-09-15T05:04:12.177Z,73.00
2022-09-15T05:06:39.288Z,72.90
2022-09-15T05:09:10.453Z,72.70
2022-09-15T05:11:37.838Z,72.80
2022-09-15T05:14:04.924Z,72.70
2022-09-15T05:16:31.896Z,72.60
2022-09-15T05:19:00.898Z,72.70
2022-09-15T05:21:27.999Z,72.50
2022-09-15T05:23:55.115Z,72.50
2022-09-15T05:26:24.497Z,72.60
2022-09-15T05:28:51.843Z,72.60
2022-09-15T05:31:28.184Z,72.90
2022-09-15T05:33:55.316Z,73.60
2022-09-15T05:36:25.572Z,73.90
2022-09-15T05:38:58.882Z,73.90
2022-09-15T05:41:27.123Z,74.00
2022-09-15T05:43:56.864Z,73.90
2022-09-15T05:46:26.047Z,73.90
2022-09-15T05:48:55.982Z,73.80
2022-09-15T05:51:23.027Z,73.70
2022-09-15T05:53:50.838Z,73.60
2022-09-15T05:56:18.599Z,73.60
2022-09-15T05:58:47.352Z,73.70
2022-09-15T06:01:19.801Z,74.20
2022-09-15T06:03:47.241Z,74.70
2022-09-15T06:06:14.169Z,75.10
2022-09-15T06:08:44.382Z,74.60
2022-09-15T06:11:13.928Z,74.80
2022-09-15T06:13:40.668Z,74.80
2022-09-15T06:16:10.263Z,74.90
2022-09-15T06:18:38.598Z,74.70
2022-09-15T06:21:08.100Z,75.40
2022-09-15T06:23:35.295Z,76.50
2022-09-15T06:26:11.335Z,76.80
2022-09-15T06:28:39.672Z,76.90
2022-09-15T06:31:11.452Z,76.90
2022-09-15T06:33:42.784Z,76.80
2022-09-15T06:36:11.664Z,77.00
2022-09-15T06:38:39.515Z,77.20
2022-09-15T06:41:10.041Z,77.10
2022-09-15T06:43:37.124Z,77.60
2022-09-15T06:46:07.474Z,77.80
2022-09-15T06:48:35.004Z,78.10
2022-09-15T06:51:02.393Z,78.10
2022-09-15T06:53:34.526Z,78.60
2022-09-15T06:56:13.031Z,78.70
2022-09-15T06:58:40.818Z,80.00
2022-09-15T07:01:19.914Z,78.90
2022-09-15T07:03:46.728Z,78.30
2022-09-15T07:06:13.521Z,78.30
2022-09-15T07:08:40.967Z,78.40
2022-09-15T07:11:08.938Z,78.40
2022-09-15T07:13:36.071Z,78.50
2022-09-15T07:16:04.751Z,78.40
2022-09-15T07:18:32.420Z,78.80
2022-09-15T07:21:01.099Z,78.80
2022-09-15T07:23:28.255Z,79.00
2022-09-15T07:26:12.907Z,78.90
2022-09-15T07:28:42.231Z,78.80
2022-09-15T07:31:11.336Z,78.90
2022-09-15T07:33:38.543Z,79.30
2022-09-15T07:36:06.994Z,79.30
2022-09-15T07:38:34.424Z,79.60
2022-09-15T07:41:09.939Z,79.50
2022-09-15T07:43:36.951Z,79.50
2022-09-15T07:46:04.314Z,80.50
2022-09-15T07:48:31.948Z,79.70
2022-09-15T07:51:01.718Z,79.50
2022-09-15T07:53:29.720Z,79.80
2022-09-15T07:55:57.091Z,79.60
2022-09-15T07:58:23.837Z,79.70
2022-09-15T08:00:50.870Z,79.90
2022-09-15T08:03:17.673Z,79.80
2022-09-15T08:05:45.735Z,79.70
2022-09-15T08:08:12.812Z,80.20
2022-09-15T08:10:41.343Z,79.70
2022-09-15T08:13:08.245Z,79.50
2022-09-15T08:15:38.723Z,79.60
2022-09-15T08:18:06.099Z,79.70
2022-09-15T08:20:33.521Z,79.70
2022-09-15T08:23:00.316Z,79.60
2022-09-15T08:25:27.230Z,79.10
2022-09-15T08:27:54.995Z,78.10
2022-09-15T08:30:22.164Z,79.20
2022-09-15T08:32:49.772Z,80.20
2022-09-15T08:35:17.587Z,79.60
2022-09-15T08:37:44.445Z,79.00
2022-09-15T08:40:22.275Z,79.70
2022-09-15T08:42:55.398Z,79.60
2022-09-15T08:45:27.719Z,79.20
2022-09-15T08:48:00.040Z,79.70
2022-09-15T08:50:38.797Z,79.40
2022-09-15T08:53:28.699Z,79.30
2022-09-15T08:55:58.866Z,78.80
2022-09-15T08:58:35.552Z,78.30
2022-09-15T09:01:11.312Z,78.20
2022-09-15T09:04:03.791Z,77.90
2022-09-15T09:06:56.644Z,77.70
2022-09-15T09:09:42.297Z,77.70
2022-09-15T09:12:54.216Z,77.80
2022-09-15T09:15:41.890Z,77.50
2022-09-15T09:18:46.750Z,77.10
2022-09-15T09:21:13.411Z,76.50
2022-09-15T09:24:13.922Z,76.70
2022-09-15T09:26:40.560Z,76.00
2022-09-15T09:29:19.554Z,76.70
2022-09-15T09:31:48.627Z,75.90
2022-09-15T09:34:45.572Z,75.70
2022-09-15T09:37:15.774Z,75.00
2022-09-15T09:39:42.622Z,74.10
2022-09-15T09:42:16.335Z,74.00
2022-09-15T09:44:43.297Z,73.90
2022-09-15T09:47:10.140Z,73.20
2022-09-15T09:49:43.045Z,73.20
2022-09-15T09:52:09.677Z,72.20
2022-09-15T09:54:37.008Z,71.30
2022-09-15T09:57:39.915Z,71.60
2022-09-15T10:00:36.735Z,70.20
2022-09-15T10:03:18.326Z,71.20
2022-09-15T10:05:46.248Z,70.10
2022-09-15T10:08:20.629Z,70.20
2022-09-15T10:10:55.916Z,70.00
2022-09-15T10:13:22.944Z,70.50
2022-09-15T10:15:56.793Z,70.50
2022-09-15T10:18:35.962Z,69.30
2022-09-15T10:21:09.409Z,68.30
2022-09-15T10:23:36.236Z,68.90
2022-09-15T10:26:19.976Z,68.10
2022-09-15T10:29:11.725Z,65.70
2022-09-15T10:31:38.875Z,65.10
2022-09-15T10:34:30.334Z,66.30
2022-09-15T10:37:29.553Z,66.00
2022-09-15T10:39:59.976Z,66.20
2022-09-15T10:42:46.125Z,66.10
2022-09-15T10:45:37.957Z,66.30
2022-09-15T10:48:38.055Z,65.60
2022-09-15T10:51:28.178Z,66.50
2022-09-15T10:54:00.798Z,65.20
2022-09-15T10:56:48.231Z,65.90
2022-09-15T10:59:26.807Z,65.20
2022-09-15T11:02:27.348Z,64.50
2022-09-15T11:05:22.510Z,64.20
2022-09-15T11:07:56.757Z,64.50
2022-09-15T11:11:04.428Z,64.60
2022-09-15T11:13:53.347Z,64.30
2022-09-15T11:16:41.303Z,63.60
2022-09-15T11:19:24.553Z,63.70
2022-09-15T11:22:05.893Z,63.20
2022-09-15T11:24:49.687Z,62.90
2022-09-15T11:27:20.067Z,62.70
2022-09-15T11:30:26.328Z,62.30
2022-09-15T11:33:04.165Z,62.00
2022-09-15T11:35:40.284Z,61.10
2022-09-15T11:38:42.723Z,60.70
2022-09-15T11:41:13.616Z,60.80
2022-09-15T11:43:55.359Z,61.10
2022-09-15T11:46:35.736Z,61.30
2022-09-15T11:49:15.021Z,61.70
2022-09-15T11:51:50.657Z,61.50
2022-09-15T11:54:34.690Z,60.80
2022-09-15T11:57:02.863Z,61.30
2022-09-15T11:59:57.724Z,62.00
2022-09-15T12:02:34.975Z,61.70
2022-09-15T12:05:22.114Z,62.30
2022-09-15T12:07:55.003Z,62.10
2022-09-15T12:10:28.729Z,62.20
2022-09-15T12:12:56.412Z,61.50
2022-09-15T12:15:29.378Z,61.10
2022-09-15T12:18:06.590Z,60.90
2022-09-15T12:21:01.045Z,61.00
2022-09-15T12:23:40.941Z,61.00
2022-09-15T12:26:20.980Z,60.40
2022-09-15T12:28:50.798Z,60.60
2022-09-15T12:31:26.404Z,61.20
2022-09-15T12:34:23.159Z,60.80
2022-09-15T12:36:54.230Z,60.00
2022-09-15T12:39:47.726Z,59.60
2022-09-15T12:42:31.447Z,60.40
2022-09-15T12:45:05.840Z,59.60
2022-09-15T12:47:41.592Z,60.10
2022-09-15T12:50:14.502Z,60.80
2022-09-15T12:52:51.507Z,60.70
2022-09-15T12:55:27.629Z,61.20
2022-09-15T12:58:00.623Z,61.20
2022-09-15T13:00:29.185Z,60.40
2022-09-15T13:02:56.533Z,60.20
2022-09-15T13:05:41.478Z,60.40
2022-09-15T13:08:12.715Z,60.20
2022-09-15T13:10:43.753Z,60.40
2022-09-15T13:13:15.168Z,59.70
2022-09-15T13:15:46.571Z,59.80
2022-09-15T13:18:17.958Z,59.40
2022-09-15T13:20:53.805Z,59.90
2022-09-15T13:23:24.992Z,60.00
2022-09-15T13:25:56.419Z,60.00
2022-09-15T13:28:24.053Z,60.00
2022-09-15T13:31:03.907Z,59.80
2022-09-15T13:40:12.979Z,60.30
2022-09-15T13:42:45.965Z,60.50
2022-09-15T13:45:24.037Z,60.80
2022-09-15T13:48:14.779Z,61.20
2022-09-15T13:50:47.407Z,61.00
2022-09-15T13:53:24.137Z,61.30
2022-09-15T13:55:53.666Z,61.30
2022-09-15T14:01:12.610Z,61.90
2022-09-15T14:03:46.356Z,62.30
2022-09-15T14:06:19.514Z,62.40
2022-09-15T14:08:51.652Z,62.70
2022-09-15T14:11:30.369Z,62.90
2022-09-15T14:13:58.439Z,62.90
2022-09-15T14:16:30.134Z,63.30
2022-09-15T14:18:58.307Z,63.80
2022-09-15T14:21:27.944Z,64.10
2022-09-15T14:23:57.120Z,64.20
2022-09-15T14:26:26.870Z,64.50
2022-09-15T14:28:58.006Z,64.90
2022-09-15T14:31:39.058Z,66.00
2022-09-15T14:34:14.533Z,65.60
2022-09-15T14:36:41.553Z,65.60
2022-09-15T14:39:21.443Z,65.80
2022-09-15T14:41:49.101Z,65.60
2022-09-15T14:47:28.619Z,66.00
2022-09-15T14:50:08.059Z,65.70
2022-09-15T14:52:40.261Z,65.90
2022-09-15T14:55:13.947Z,66.10
2022-09-15T15:00:22.844Z,66.60
2022-09-15T15:03:06.928Z,66.80
2022-09-15T15:05:40.536Z,66.70
2022-09-15T15:08:09.507Z,66.80
2022-09-15T15:10:37.112Z,67.10
2022-09-15T15:13:09.625Z,67.20
2022-09-15T15:15:38.902Z,67.00
2022-09-15T15:18:31.002Z,67.00
2022-09-15T15:20:59.083Z,67.00
2022-09-15T15:23:26.692Z,67.20
2022-09-15T15:25:54.136Z,67.20
2022-09-15T15:28:35.926Z,67.30
2022-09-15T15:31:16.159Z,67.50
2022-09-15T15:33:46.691Z,68.20
2022-09-15T15:36:13.755Z,68.20
2022-09-15T15:38:51.052Z,68.60
2022-09-15T15:41:31.282Z,68.60
2022-09-15T15:44:22.499Z,68.70
2022-09-15T15:46:49.825Z,69.10
2022-09-15T15:49:17.886Z,69.20
2022-09-15T15:51:44.812Z,69.30
2022-09-15T15:54:12.031Z,69.50
2022-09-15T15:56:39.162Z,69.40
2022-09-15T15:59:06.246Z,69.70
2022-09-15T16:01:33.602Z,69.70
2022-09-15T16:04:00.588Z,69.90
2022-09-15T16:06:27.717Z,69.70
2022-09-15T16:08:58.103Z,70.00
2022-09-15T16:11:25.070Z,69.80
2022-09-15T16:13:52.527Z,69.70
2022-09-15T16:16:25.230Z,69.30
2022-09-15T16:18:52.373Z,69.20
2022-09-15T16:21:28.218Z,69.00
2022-09-15T16:23:55.098Z,68.90
2022-09-15T16:26:23.618Z,68.90
2022-09-15T16:28:51.174Z,68.70
2022-09-15T16:31:17.862Z,68.80
2022-09-15T16:33:45.496Z,68.60
2022-09-15T16:36:13.878Z,68.70
2022-09-15T16:38:41.233Z,68.70
2022-09-15T16:41:26.949Z,68.80
2022-09-15T16:43:55.756Z,68.80
2022-09-15T16:46:22.718Z,68.90
2022-09-15T16:48:49.382Z,69.00
2022-09-15T16:51:31.430Z,69.10
2022-09-15T16:53:58.786Z,69.30
2022-09-15T16:56:25.453Z,69.10
2022-09-15T16:58:58.828Z,68.90
2022-09-15T17:01:26.863Z,69.00
2022-09-15T17:03:53.686Z,69.00
2022-09-15T17:06:21.995Z,69.20
2022-09-15T17:08:48.987Z,69.30
2022-09-15T17:11:18.775Z,69.10
2022-09-15T17:13:46.397Z,68.80
2022-09-15T17:16:15.334Z,68.90
2022-09-15T17:18:42.099Z,68.80
2022-09-15T17:21:12.389Z,68.90
2022-09-15T17:23:44.475Z,68.60
2022-09-15T17:26:13.565Z,68.50
2022-09-15T17:28:41.042Z,68.50
2022-09-15T17:31:19.630Z,68.40
2022-09-15T17:33:47.958Z,68.30
2022-09-15T17:36:14.934Z,68.10
2022-09-15T17:38:41.675Z,68.10
2022-09-15T17:41:19.867Z,68.00
2022-09-15T17:43:47.125Z,67.90
2022-09-15T17:46:14.134Z,68.10
2022-09-15T17:48:40.887Z,68.10
2022-09-15T17:51:09.577Z,68.90
2022-09-15T17:53:36.402Z,68.10
2022-09-15T17:56:03.250Z,68.20
2022-09-15T17:58:31.365Z,68.20
2022-09-15T18:00:58.729Z,68.10
2022-09-15T18:03:34.910Z,68.00
2022-09-15T18:06:07.419Z,68.00
2022-09-15T18:08:35.852Z,68.00
2022-09-15T18:11:03.969Z,67.80
2022-09-15T18:13:31.251Z,67.80
2022-09-15T18:16:05.036Z,67.90
2022-09-15T18:18:31.922Z,67.70
2022-09-15T18:20:58.862Z,67.90
2022-09-15T18:23:30.834Z,68.00
2022-09-15T18:25:57.616Z,68.00
2022-09-15T18:28:24.311Z,68.00
2022-09-15T18:30:51.634Z,68.10
2022-09-15T18:33:23.681Z,68.30
2022-09-15T18:35:52.885Z,68.40
2022-09-15T18:38:20.604Z,68.50
2022-09-15T18:40:53.444Z,68.60
2022-09-15T18:43:21.294Z,68.50
2022-09-15T18:45:48.859Z,68.60
2022-09-15T18:48:16.000Z,68.70
2022-09-15T18:50:44.573Z,68.80
2022-09-15T18:53:11.928Z,69.10
2022-09-15T18:55:41.470Z,69.30
2022-09-15T18:58:08.760Z,69.10
2022-09-15T19:00:35.959Z,69.30
2022-09-15T19:03:05.154Z,69.40
2022-09-15T19:05:33.204Z,69.50
2022-09-15T19:08:00.394Z,69.50
2022-09-15T19:10:27.372Z,69.30
2022-09-15T19:12:54.665Z,69.40
2022-09-15T19:15:23.616Z,69.60
2022-09-15T19:17:51.286Z,69.60
2022-09-15T19:20:18.613Z,69.40
2022-09-15T19:22:46.023Z,69.60
2022-09-15T19:25:13.419Z,69.70
2022-09-15T19:27:41.251Z,69.70
2022-09-15T19:30:10.033Z,69.90
2022-09-15T19:32:38.215Z,69.80
2022-09-15T19:35:05.313Z,69.90
2022-09-15T19:37:35.545Z,69.90
2022-09-15T19:40:03.606Z,69.90
2022-09-15T19:42:30.479Z,69.90
2022-09-15T19:44:57.133Z,69.90
2022-09-15T19:47:24.010Z,69.70
2022-09-15T19:49:52.162Z,70.10
2022-09-15T19:52:18.807Z,70.20
2022-09-15T19:54:45.443Z,70.00
2022-09-15T19:57:12.262Z,70.10
2022-09-15T19:59:39.011Z,70.10
2022-09-15T20:02:05.785Z,70.10
2022-09-15T20:04:32.550Z,70.30
2022-09-15T20:06:59.244Z,70.40
2022-09-15T20:09:26.299Z,70.40
2022-09-15T20:11:53.091Z,70.50
2022-09-15T20:14:19.719Z,70.50
2022-09-15T20:16:46.443Z,70.80
2022-09-15T20:19:13.184Z,70.50
2022-09-15T20:21:55.811Z,70.40
2022-09-15T20:24:23.708Z,70.30
2022-09-15T20:26:51.184Z,70.60
2022-09-15T20:29:18.432Z,70.50
2022-09-15T20:31:45.560Z,70.40
2022-09-15T20:34:12.287Z,70.60
2022-09-15T20:36:39.371Z,70.60
2022-09-15T20:39:13.036Z,70.60
2022-09-15T20:41:40.670Z,70.60
2022-09-15T20:44:10.144Z,70.50
2022-09-15T20:46:37.177Z,70.30
2022-09-15T20:49:08.971Z,70.50
2022-09-15T20:51:35.709Z,71.60
2022-09-15T20:54:04.266Z,71.10
2022-09-15T20:56:34.611Z,71.40
2022-09-15T20:59:01.249Z,71.60
2022-09-15T21:01:31.948Z,71.80
2022-09-15T21:03:59.037Z,71.50
2022-09-15T21:06:27.975Z,71.80
2022-09-15T21:08:56.473Z,72.20
2022-09-15T21:11:24.042Z,72.70
2022-09-15T21:13:50.847Z,72.70
2022-09-15T21:16:20.632Z,72.60
2022-09-15T21:18:48.453Z,72.80
2022-09-15T21:21:21.672Z,72.50
2022-09-15T21:23:51.586Z,73.10
2022-09-15T21:26:26.865Z,72.80
2022-09-15T21:28:55.334Z,73.20
2022-09-15T21:31:25.415Z,73.30
2022-09-15T21:33:53.691Z,73.30
2022-09-15T21:36:29.483Z,73.30
2022-09-15T21:38:57.483Z,73.60
2022-09-15T21:41:29.061Z,73.60
2022-09-15T21:43:57.983Z,73.90
2022-09-15T21:46:27.381Z,73.80
2022-09-15T21:48:56.383Z,74.10
2022-09-15T21:51:24.985Z,74.10
2022-09-15T21:53:53.996Z,73.90
2022-09-15T21:56:21.844Z,74.10
2022-09-15T21:58:48.865Z,74.00
2022-09-15T22:01:27.827Z,74.30
2022-09-15T22:03:57.300Z,74.50
2022-09-15T22:06:27.735Z,75.20
2022-09-15T22:08:55.350Z,74.50
2022-09-15T22:11:22.685Z,74.70
2022-09-15T22:13:49.838Z,74.60
2022-09-15T22:16:19.747Z,74.50
2022-09-15T22:18:47.695Z,75.00
2022-09-15T22:21:17.391Z,75.00
2022-09-15T22:23:44.914Z,74.90
2022-09-15T22:26:15.141Z,74.90
2022-09-15T22:28:42.095Z,74.50
2022-09-15T22:31:10.740Z,74.70
2022-09-15T22:33:39.488Z,74.70
2022-09-15T22:36:12.688Z,74.80
2022-09-15T22:38:39.382Z,74.90
2022-09-15T22:41:09.155Z,74.70
2022-09-15T22:43:36.439Z,74.50
2022-09-15T22:46:03.302Z,74.40
2022-09-15T22:48:30.051Z,74.80
2022-09-15T22:50:56.696Z,74.50
2022-09-15T22:53:23.514Z,74.70
2022-09-15T22:55:51.254Z,74.70
2022-09-15T22:58:18.040Z,74.70
2022-09-15T23:00:45.163Z,75.00
2022-09-15T23:03:12.234Z,75.20
2022-09-15T23:05:38.986Z,75.10
2022-09-15T23:08:05.654Z,75.10
2022-09-15T23:10:33.280Z,75.30
2022-09-15T23:12:59.942Z,75.20
2022-09-15T23:15:27.188Z,75.30
2022-09-15T23:17:53.903Z,75.20
2022-09-15T23:20:20.907Z,75.30
2022-09-15T23:22:47.532Z,74.90
2022-09-15T23:25:14.333Z,74.90
2022-09-15T23:27:40.947Z,75.10
2022-09-15T23:30:08.167Z,75.00
2022-09-15T23:32:34.827Z,74.90
2022-09-15T23:35:03.845Z,75.20
2022-09-15T23:37:30.604Z,75.10
2022-09-15T23:39:57.436Z,75.10
2022-09-15T23:42:24.200Z,75.40
2022-09-15T23:44:50.825Z,76.00
2022-09-15T23:47:17.495Z,76.10
2022-09-15T23:49:44.224Z,76.10
2022-09-15T23:52:10.865Z,76.10
2022-09-15T23:54:37.506Z,75.90
2022-09-15T23:57:04.296Z,76.30
2022-09-15T23:59:30.916Z,76.30
